sensor_id;sensor_type;location;lat;lon;timestamp;temperature;humidity
82126;DHT22;71668;51.400;6.758;2023-09-30T00:00:05;15.10;86.60
82126;DHT22;71668;51.400;6.758;2023-09-30T00:02:36;14.90;86.90
82126;DHT22;71668;51.400;6.758;2023-09-30T00:05:03;14.90;87.90
82126;DHT22;71668;51.400;6.758;2023-09-30T00:07:30;14.90;88.20
82126;DHT22;71668;51.400;6.758;2023-09-30T00:09:58;14.90;88.20
82126;DHT22;71668;51.400;6.758;2023-09-30T00:12:26;14.80;87.80
82126;DHT22;71668;51.400;6.758;2023-09-30T00:14:53;14.80;88.30
82126;DHT22;71668;51.400;6.758;2023-09-30T00:17:20;14.90;88.60
82126;DHT22;71668;51.400;6.758;2023-09-30T00:19:47;14.90;89.60
82126;DHT22;71668;51.400;6.758;2023-09-30T00:22:14;15.00;89.60
82126;DHT22;71668;51.400;6.758;2023-09-30T00:24:41;15.00;89.60
82126;DHT22;71668;51.400;6.758;2023-09-30T00:27:08;14.90;89.40
82126;DHT22;71668;51.400;6.758;2023-09-30T00:29:35;14.90;90.10
82126;DHT22;71668;51.400;6.758;2023-09-30T00:32:02;15.10;90.20
82126;DHT22;71668;51.400;6.758;2023-09-30T00:34:38;15.10;89.90
82126;DHT22;71668;51.400;6.758;2023-09-30T00:37:07;15.10;89.40
82126;DHT22;71668;51.400;6.758;2023-09-30T00:39:33;15.00;89.40
82126;DHT22;71668;51.400;6.758;2023-09-30T00:42:00;15.10;89.60
82126;DHT22;71668;51.400;6.758;2023-09-30T00:44:28;15.10;89.40
82126;DHT22;71668;51.400;6.758;2023-09-30T00:46:55;15.10;89.30
82126;DHT22;71668;51.400;6.758;2023-09-30T00:49:24;15.00;89.50
82126;DHT22;71668;51.400;6.758;2023-09-30T00:51:52;15.00;89.80
82126;DHT22;71668;51.400;6.758;2023-09-30T00:54:19;15.00;89.80
82126;DHT22;71668;51.400;6.758;2023-09-30T00:56:49;14.90;90.00
82126;DHT22;71668;51.400;6.758;2023-09-30T00:59:17;14.90;90.10
82126;DHT22;71668;51.400;6.758;2023-09-30T01:01:45;14.90;90.00
82126;DHT22;71668;51.400;6.758;2023-09-30T01:04:12;15.00;90.00
82126;DHT22;71668;51.400;6.758;2023-09-30T01:06:40;15.00;90.00
82126;DHT22;71668;51.400;6.758;2023-09-30T01:09:07;15.00;89.60
82126;DHT22;71668;51.400;6.758;2023-09-30T01:11:35;15.00;89.60
82126;DHT22;71668;51.400;6.758;2023-09-30T01:14:03;15.00;89.80
82126;DHT22;71668;51.400;6.758;2023-09-30T01:16:30;15.10;89.30
82126;DHT22;71668;51.400;6.758;2023-09-30T01:18:57;14.90;89.50
82126;DHT22;71668;51.400;6.758;2023-09-30T01:21:25;14.90;90.00
82126;DHT22;71668;51.400;6.758;2023-09-30T01:23:54;14.90;90.00
82126;DHT22;71668;51.400;6.758;2023-09-30T01:26:22;15.00;90.10
82126;DHT22;71668;51.400;6.758;2023-09-30T01:28:49;15.00;90.10
82126;DHT22;71668;51.400;6.758;2023-09-30T01:31:16;14.90;90.00
82126;DHT22;71668;51.400;6.758;2023-09-30T01:33:43;14.90;90.20
82126;DHT22;71668;51.400;6.758;2023-09-30T01:36:11;15.00;90.30
82126;DHT22;71668;51.400;6.758;2023-09-30T01:38:38;14.90;90.10
82126;DHT22;71668;51.400;6.758;2023-09-30T01:41:04;14.90;90.20
82126;DHT22;71668;51.400;6.758;2023-09-30T01:43:33;14.80;90.40
82126;DHT22;71668;51.400;6.758;2023-09-30T01:46:02;14.80;90.40
82126;DHT22;71668;51.400;6.758;2023-09-30T01:48:29;14.80;90.50
82126;DHT22;71668;51.400;6.758;2023-09-30T01:50:56;14.80;90.50
82126;DHT22;71668;51.400;6.758;2023-09-30T01:53:24;14.70;90.80
82126;DHT22;71668;51.400;6.758;2023-09-30T01:55:51;14.70;90.80
82126;DHT22;71668;51.400;6.758;2023-09-30T01:58:18;14.70;90.90
82126;DHT22;71668;51.400;6.758;2023-09-30T02:00:45;14.70;90.90
82126;DHT22;71668;51.400;6.758;2023-09-30T02:03:12;14.70;91.00
82126;DHT22;71668;51.400;6.758;2023-09-30T02:05:39;14.70;90.90
82126;DHT22;71668;51.400;6.758;2023-09-30T02:08:06;14.60;91.00
82126;DHT22;71668;51.400;6.758;2023-09-30T02:10:33;14.60;91.20
82126;DHT22;71668;51.400;6.758;2023-09-30T02:13:01;14.60;91.20
82126;DHT22;71668;51.400;6.758;2023-09-30T02:15:28;14.50;91.20
82126;DHT22;71668;51.400;6.758;2023-09-30T02:17:55;14.50;91.20
82126;DHT22;71668;51.400;6.758;2023-09-30T02:20:22;14.50;91.20
82126;DHT22;71668;51.400;6.758;2023-09-30T02:22:52;14.50;91.20
82126;DHT22;71668;51.400;6.758;2023-09-30T02:25:21;14.50;91.30
82126;DHT22;71668;51.400;6.758;2023-09-30T02:27:49;14.40;91.10
82126;DHT22;71668;51.400;6.758;2023-09-30T02:30:17;14.30;91.30
82126;DHT22;71668;51.400;6.758;2023-09-30T02:32:44;14.20;91.50
82126;DHT22;71668;51.400;6.758;2023-09-30T02:35:13;14.20;91.60
82126;DHT22;71668;51.400;6.758;2023-09-30T02:37:43;14.20;91.60
82126;DHT22;71668;51.400;6.758;2023-09-30T02:40:10;14.20;91.60
82126;DHT22;71668;51.400;6.758;2023-09-30T02:42:38;14.20;91.70
82126;DHT22;71668;51.400;6.758;2023-09-30T02:45:06;14.00;91.90
82126;DHT22;71668;51.400;6.758;2023-09-30T02:47:35;13.70;92.40
82126;DHT22;71668;51.400;6.758;2023-09-30T02:50:05;13.60;92.80
82126;DHT22;71668;51.400;6.758;2023-09-30T02:52:32;13.70;92.90
82126;DHT22;71668;51.400;6.758;2023-09-30T02:55:02;13.80;92.80
82126;DHT22;71668;51.400;6.758;2023-09-30T02:57:29;13.90;92.70
82126;DHT22;71668;51.400;6.758;2023-09-30T02:59:58;13.90;92.50
82126;DHT22;71668;51.400;6.758;2023-09-30T03:02:27;14.00;92.30
82126;DHT22;71668;51.400;6.758;2023-09-30T03:04:54;14.00;92.10
82126;DHT22;71668;51.400;6.758;2023-09-30T03:07:22;14.00;91.90
82126;DHT22;71668;51.400;6.758;2023-09-30T03:09:49;13.90;92.00
82126;DHT22;71668;51.400;6.758;2023-09-30T03:12:17;13.90;92.00
82126;DHT22;71668;51.400;6.758;2023-09-30T03:14:43;13.90;92.10
82126;DHT22;71668;51.400;6.758;2023-09-30T03:17:10;13.90;92.00
82126;DHT22;71668;51.400;6.758;2023-09-30T03:19:39;13.90;91.80
82126;DHT22;71668;51.400;6.758;2023-09-30T03:22:06;13.90;91.90
82126;DHT22;71668;51.400;6.758;2023-09-30T03:24:39;13.90;91.90
82126;DHT22;71668;51.400;6.758;2023-09-30T03:27:07;13.80;91.90
82126;DHT22;71668;51.400;6.758;2023-09-30T03:29:37;13.80;91.80
82126;DHT22;71668;51.400;6.758;2023-09-30T03:32:07;13.80;92.10
82126;DHT22;71668;51.400;6.758;2023-09-30T03:34:34;13.70;92.10
82126;DHT22;71668;51.400;6.758;2023-09-30T03:37:04;13.60;92.40
82126;DHT22;71668;51.400;6.758;2023-09-30T03:39:34;13.70;92.60
82126;DHT22;71668;51.400;6.758;2023-09-30T03:42:01;13.70;92.30
82126;DHT22;71668;51.400;6.758;2023-09-30T03:44:29;13.70;92.40
82126;DHT22;71668;51.400;6.758;2023-09-30T03:46:56;13.70;92.50
82126;DHT22;71668;51.400;6.758;2023-09-30T03:49:25;13.70;92.60
82126;DHT22;71668;51.400;6.758;2023-09-30T03:51:54;13.80;92.50
82126;DHT22;71668;51.400;6.758;2023-09-30T03:54:21;13.80;92.20
82126;DHT22;71668;51.400;6.758;2023-09-30T03:56:48;13.80;92.10
82126;DHT22;71668;51.400;6.758;2023-09-30T03:59:15;13.80;92.00
82126;DHT22;71668;51.400;6.758;2023-09-30T04:01:42;13.70;92.30
82126;DHT22;71668;51.400;6.758;2023-09-30T04:04:09;13.60;92.40
82126;DHT22;71668;51.400;6.758;2023-09-30T04:06:37;13.50;92.50
82126;DHT22;71668;51.400;6.758;2023-09-30T04:09:07;13.50;92.80
82126;DHT22;71668;51.400;6.758;2023-09-30T04:11:37;13.50;92.70
82126;DHT22;71668;51.400;6.758;2023-09-30T04:14:06;13.50;92.80
82126;DHT22;71668;51.400;6.758;2023-09-30T04:16:33;13.40;92.80
82126;DHT22;71668;51.400;6.758;2023-09-30T04:19:01;13.40;92.90
82126;DHT22;71668;51.400;6.758;2023-09-30T04:21:28;13.40;92.90
82126;DHT22;71668;51.400;6.758;2023-09-30T04:23:57;13.40;93.10
82126;DHT22;71668;51.400;6.758;2023-09-30T04:26:24;13.40;93.00
82126;DHT22;71668;51.400;6.758;2023-09-30T04:28:52;13.50;92.90
82126;DHT22;71668;51.400;6.758;2023-09-30T04:31:20;13.40;92.90
82126;DHT22;71668;51.400;6.758;2023-09-30T04:33:52;13.40;93.00
82126;DHT22;71668;51.400;6.758;2023-09-30T04:36:20;13.40;93.30
82126;DHT22;71668;51.400;6.758;2023-09-30T04:38:48;13.30;93.00
82126;DHT22;71668;51.400;6.758;2023-09-30T04:41:14;13.20;93.10
82126;DHT22;71668;51.400;6.758;2023-09-30T04:43:42;13.20;93.40
82126;DHT22;71668;51.400;6.758;2023-09-30T04:46:10;13.20;93.40
82126;DHT22;71668;51.400;6.758;2023-09-30T04:48:40;13.10;93.40
82126;DHT22;71668;51.400;6.758;2023-09-30T04:51:08;13.10;93.50
82126;DHT22;71668;51.400;6.758;2023-09-30T04:53:35;13.10;93.60
82126;DHT22;71668;51.400;6.758;2023-09-30T04:56:03;13.10;93.60
82126;DHT22;71668;51.400;6.758;2023-09-30T04:58:30;13.10;93.60
82126;DHT22;71668;51.400;6.758;2023-09-30T05:00:58;13.10;93.50
82126;DHT22;71668;51.400;6.758;2023-09-30T05:03:25;13.00;93.60
82126;DHT22;71668;51.400;6.758;2023-09-30T05:05:53;13.00;93.90
82126;DHT22;71668;51.400;6.758;2023-09-30T05:08:23;13.10;93.90
82126;DHT22;71668;51.400;6.758;2023-09-30T05:10:51;13.10;93.90
82126;DHT22;71668;51.400;6.758;2023-09-30T05:13:22;13.10;93.80
82126;DHT22;71668;51.400;6.758;2023-09-30T05:15:52;13.10;93.70
82126;DHT22;71668;51.400;6.758;2023-09-30T05:18:20;13.10;93.80
82126;DHT22;71668;51.400;6.758;2023-09-30T05:20:48;13.00;93.90
82126;DHT22;71668;51.400;6.758;2023-09-30T05:23:16;13.00;93.80
82126;DHT22;71668;51.400;6.758;2023-09-30T05:25:44;13.00;93.90
82126;DHT22;71668;51.400;6.758;2023-09-30T05:28:11;12.90;94.10
82126;DHT22;71668;51.400;6.758;2023-09-30T05:30:40;12.80;94.00
82126;DHT22;71668;51.400;6.758;2023-09-30T05:33:07;12.80;94.20
82126;DHT22;71668;51.400;6.758;2023-09-30T05:35:42;12.70;94.30
82126;DHT22;71668;51.400;6.758;2023-09-30T05:38:09;12.70;94.40
82126;DHT22;71668;51.400;6.758;2023-09-30T05:40:37;12.70;94.60
82126;DHT22;71668;51.400;6.758;2023-09-30T05:43:04;12.70;94.60
82126;DHT22;71668;51.400;6.758;2023-09-30T05:45:32;12.80;94.70
82126;DHT22;71668;51.400;6.758;2023-09-30T05:48:03;12.80;94.50
82126;DHT22;71668;51.400;6.758;2023-09-30T05:50:34;12.80;94.50
82126;DHT22;71668;51.400;6.758;2023-09-30T05:53:03;12.90;94.60
82126;DHT22;71668;51.400;6.758;2023-09-30T05:55:34;12.90;94.50
82126;DHT22;71668;51.400;6.758;2023-09-30T05:58:00;12.90;94.30
82126;DHT22;71668;51.400;6.758;2023-09-30T06:00:28;13.10;94.20
82126;DHT22;71668;51.400;6.758;2023-09-30T06:02:58;13.10;94.00
82126;DHT22;71668;51.400;6.758;2023-09-30T06:05:26;13.30;93.80
82126;DHT22;71668;51.400;6.758;2023-09-30T06:07:54;13.40;93.50
82126;DHT22;71668;51.400;6.758;2023-09-30T06:10:21;13.50;93.20
82126;DHT22;71668;51.400;6.758;2023-09-30T06:12:50;13.60;93.00
82126;DHT22;71668;51.400;6.758;2023-09-30T06:15:24;13.70;92.70
82126;DHT22;71668;51.400;6.758;2023-09-30T06:17:55;13.80;92.30
82126;DHT22;71668;51.400;6.758;2023-09-30T06:20:23;13.90;92.20
82126;DHT22;71668;51.400;6.758;2023-09-30T06:22:53;13.90;92.50
82126;DHT22;71668;51.400;6.758;2023-09-30T06:25:20;14.10;92.00
82126;DHT22;71668;51.400;6.758;2023-09-30T06:27:50;14.10;91.80
82126;DHT22;71668;51.400;6.758;2023-09-30T06:30:18;14.10;91.70
82126;DHT22;71668;51.400;6.758;2023-09-30T06:32:48;14.10;91.80
82126;DHT22;71668;51.400;6.758;2023-09-30T06:35:15;14.20;91.70
82126;DHT22;71668;51.400;6.758;2023-09-30T06:37:42;14.30;91.60
82126;DHT22;71668;51.400;6.758;2023-09-30T06:40:12;14.40;91.50
82126;DHT22;71668;51.400;6.758;2023-09-30T06:42:40;14.40;91.50
82126;DHT22;71668;51.400;6.758;2023-09-30T06:45:08;14.50;91.50
82126;DHT22;71668;51.400;6.758;2023-09-30T06:47:38;14.60;91.40
82126;DHT22;71668;51.400;6.758;2023-09-30T06:50:15;14.60;91.40
82126;DHT22;71668;51.400;6.758;2023-09-30T06:52:44;14.70;91.30
82126;DHT22;71668;51.400;6.758;2023-09-30T06:55:17;14.80;91.20
82126;DHT22;71668;51.400;6.758;2023-09-30T06:57:44;15.00;91.20
82126;DHT22;71668;51.400;6.758;2023-09-30T07:00:13;15.00;90.90
82126;DHT22;71668;51.400;6.758;2023-09-30T07:02:41;15.20;90.90
82126;DHT22;71668;51.400;6.758;2023-09-30T07:05:10;15.30;90.70
82126;DHT22;71668;51.400;6.758;2023-09-30T07:07:38;15.50;90.50
82126;DHT22;71668;51.400;6.758;2023-09-30T07:10:06;15.60;90.40
82126;DHT22;71668;51.400;6.758;2023-09-30T07:12:46;15.70;90.10
82126;DHT22;71668;51.400;6.758;2023-09-30T07:15:25;15.80;89.60
82126;DHT22;71668;51.400;6.758;2023-09-30T07:17:52;15.90;89.40
82126;DHT22;71668;51.400;6.758;2023-09-30T07:20:19;16.10;88.90
82126;DHT22;71668;51.400;6.758;2023-09-30T07:22:49;16.30;88.70
82126;DHT22;71668;51.400;6.758;2023-09-30T07:25:36;16.60;87.50
82126;DHT22;71668;51.400;6.758;2023-09-30T07:28:03;17.00;85.80
82126;DHT22;71668;51.400;6.758;2023-09-30T07:30:30;17.50;83.60
82126;DHT22;71668;51.400;6.758;2023-09-30T07:32:57;17.80;81.00
82126;DHT22;71668;51.400;6.758;2023-09-30T07:35:24;18.10;78.70
82126;DHT22;71668;51.400;6.758;2023-09-30T07:37:50;18.60;77.40
82126;DHT22;71668;51.400;6.758;2023-09-30T07:40:19;20.80;69.00
82126;DHT22;71668;51.400;6.758;2023-09-30T07:42:47;22.40;60.20
82126;DHT22;71668;51.400;6.758;2023-09-30T07:45:14;23.50;56.00
82126;DHT22;71668;51.400;6.758;2023-09-30T07:47:44;24.20;53.50
82126;DHT22;71668;51.400;6.758;2023-09-30T07:50:14;25.00;51.60
82126;DHT22;71668;51.400;6.758;2023-09-30T07:52:44;25.70;49.50
82126;DHT22;71668;51.400;6.758;2023-09-30T07:55:14;26.20;47.90
82126;DHT22;71668;51.400;6.758;2023-09-30T07:57:42;26.70;46.70
82126;DHT22;71668;51.400;6.758;2023-09-30T08:00:11;27.20;45.40
82126;DHT22;71668;51.400;6.758;2023-09-30T08:02:48;27.60;43.80
82126;DHT22;71668;51.400;6.758;2023-09-30T08:05:15;28.00;42.90
82126;DHT22;71668;51.400;6.758;2023-09-30T08:07:43;28.20;42.50
82126;DHT22;71668;51.400;6.758;2023-09-30T08:10:10;28.70;41.50
82126;DHT22;71668;51.400;6.758;2023-09-30T08:12:44;29.20;41.20
82126;DHT22;71668;51.400;6.758;2023-09-30T08:15:15;29.80;39.90
82126;DHT22;71668;51.400;6.758;2023-09-30T08:17:48;30.30;38.80
82126;DHT22;71668;51.400;6.758;2023-09-30T08:20:15;30.70;38.10
82126;DHT22;71668;51.400;6.758;2023-09-30T08:22:42;31.20;37.10
82126;DHT22;71668;51.400;6.758;2023-09-30T08:25:09;31.60;36.70
82126;DHT22;71668;51.400;6.758;2023-09-30T08:27:37;31.80;35.80
82126;DHT22;71668;51.400;6.758;2023-09-30T08:30:06;32.00;35.40
82126;DHT22;71668;51.400;6.758;2023-09-30T08:32:36;32.20;35.20
82126;DHT22;71668;51.400;6.758;2023-09-30T08:35:04;32.40;34.80
82126;DHT22;71668;51.400;6.758;2023-09-30T08:37:31;32.50;34.40
82126;DHT22;71668;51.400;6.758;2023-09-30T08:39:58;32.50;34.20
82126;DHT22;71668;51.400;6.758;2023-09-30T08:42:27;32.70;34.10
82126;DHT22;71668;51.400;6.758;2023-09-30T08:45:03;33.00;33.60
82126;DHT22;71668;51.400;6.758;2023-09-30T08:47:31;33.40;33.10
82126;DHT22;71668;51.400;6.758;2023-09-30T08:50:00;33.40;32.70
82126;DHT22;71668;51.400;6.758;2023-09-30T08:52:34;33.60;32.80
82126;DHT22;71668;51.400;6.758;2023-09-30T08:55:07;33.80;32.40
82126;DHT22;71668;51.400;6.758;2023-09-30T08:57:41;34.40;32.00
82126;DHT22;71668;51.400;6.758;2023-09-30T09:00:13;35.00;31.20
82126;DHT22;71668;51.400;6.758;2023-09-30T09:02:41;35.40;30.10
82126;DHT22;71668;51.400;6.758;2023-09-30T09:05:09;35.60;29.90
82126;DHT22;71668;51.400;6.758;2023-09-30T09:07:38;35.90;29.60
82126;DHT22;71668;51.400;6.758;2023-09-30T09:10:10;36.10;29.30
82126;DHT22;71668;51.400;6.758;2023-09-30T09:12:40;36.30;29.20
82126;DHT22;71668;51.400;6.758;2023-09-30T09:15:19;36.50;28.90
82126;DHT22;71668;51.400;6.758;2023-09-30T09:17:47;36.60;28.60
82126;DHT22;71668;51.400;6.758;2023-09-30T09:20:18;36.50;28.40
82126;DHT22;71668;51.400;6.758;2023-09-30T09:22:50;36.80;28.50
82126;DHT22;71668;51.400;6.758;2023-09-30T09:25:23;37.30;28.30
82126;DHT22;71668;51.400;6.758;2023-09-30T09:27:54;37.70;28.10
82126;DHT22;71668;51.400;6.758;2023-09-30T09:30:26;37.90;27.50
82126;DHT22;71668;51.400;6.758;2023-09-30T09:33:04;37.90;27.30
82126;DHT22;71668;51.400;6.758;2023-09-30T09:35:35;38.20;27.10
82126;DHT22;71668;51.400;6.758;2023-09-30T09:38:04;38.50;26.70
82126;DHT22;71668;51.400;6.758;2023-09-30T09:40:33;38.60;26.40
82126;DHT22;71668;51.400;6.758;2023-09-30T09:43:01;37.40;26.90
82126;DHT22;71668;51.400;6.758;2023-09-30T09:45:34;37.30;27.30
82126;DHT22;71668;51.400;6.758;2023-09-30T09:48:02;36.00;27.60
82126;DHT22;71668;51.400;6.758;2023-09-30T09:50:31;34.90;28.20
82126;DHT22;71668;51.400;6.758;2023-09-30T09:53:04;33.40;29.10
82126;DHT22;71668;51.400;6.758;2023-09-30T09:55:32;32.60;30.40
82126;DHT22;71668;51.400;6.758;2023-09-30T09:58:02;33.60;29.60
82126;DHT22;71668;51.400;6.758;2023-09-30T10:00:29;34.70;29.10
82126;DHT22;71668;51.400;6.758;2023-09-30T10:02:58;36.10;27.60
82126;DHT22;71668;51.400;6.758;2023-09-30T10:05:26;35.90;27.50
82126;DHT22;71668;51.400;6.758;2023-09-30T10:08:02;35.70;27.60
82126;DHT22;71668;51.400;6.758;2023-09-30T10:10:31;34.90;27.70
82126;DHT22;71668;51.400;6.758;2023-09-30T10:13:02;34.50;28.70
82126;DHT22;71668;51.400;6.758;2023-09-30T10:17:59;31.60;31.00
82126;DHT22;71668;51.400;6.758;2023-09-30T10:20:31;29.70;33.10
82126;DHT22;71668;51.400;6.758;2023-09-30T10:25:45;26.60;37.90
82126;DHT22;71668;51.400;6.758;2023-09-30T10:31:22;24.80;41.00
82126;DHT22;71668;51.400;6.758;2023-09-30T10:36:29;23.90;42.80
82126;DHT22;71668;51.400;6.758;2023-09-30T10:38:57;24.00;42.70
82126;DHT22;71668;51.400;6.758;2023-09-30T10:46:59;23.30;43.90
82126;DHT22;71668;51.400;6.758;2023-09-30T10:51:59;22.80;44.90
82126;DHT22;71668;51.400;6.758;2023-09-30T10:54:32;22.50;45.00
82126;DHT22;71668;51.400;6.758;2023-09-30T10:57:02;22.30;45.60
82126;DHT22;71668;51.400;6.758;2023-09-30T10:59:52;22.20;46.20
82126;DHT22;71668;51.400;6.758;2023-09-30T11:02:33;22.30;46.80
82126;DHT22;71668;51.400;6.758;2023-09-30T11:05:10;22.40;46.80
82126;DHT22;71668;51.400;6.758;2023-09-30T11:07:42;22.40;46.80
82126;DHT22;71668;51.400;6.758;2023-09-30T11:10:21;24.00;44.80
82126;DHT22;71668;51.400;6.758;2023-09-30T11:12:56;25.10;42.00
82126;DHT22;71668;51.400;6.758;2023-09-30T11:15:24;24.50;42.70
82126;DHT22;71668;51.400;6.758;2023-09-30T11:18:13;24.20;43.30
82126;DHT22;71668;51.400;6.758;2023-09-30T11:20:41;23.90;43.80
82126;DHT22;71668;51.400;6.758;2023-09-30T11:23:08;23.60;44.20
82126;DHT22;71668;51.400;6.758;2023-09-30T11:25:36;23.40;44.20
82126;DHT22;71668;51.400;6.758;2023-09-30T11:28:14;23.10;44.40
82126;DHT22;71668;51.400;6.758;2023-09-30T11:31:00;22.90;44.50
82126;DHT22;71668;51.400;6.758;2023-09-30T11:33:29;22.80;44.80
82126;DHT22;71668;51.400;6.758;2023-09-30T11:36:00;22.60;45.00
82126;DHT22;71668;51.400;6.758;2023-09-30T11:38:30;22.40;45.60
82126;DHT22;71668;51.400;6.758;2023-09-30T11:41:05;22.50;45.80
82126;DHT22;71668;51.400;6.758;2023-09-30T11:43:34;22.60;45.90
82126;DHT22;71668;51.400;6.758;2023-09-30T11:46:11;22.40;45.40
82126;DHT22;71668;51.400;6.758;2023-09-30T11:49:03;22.40;45.60
82126;DHT22;71668;51.400;6.758;2023-09-30T11:51:44;22.50;45.90
82126;DHT22;71668;51.400;6.758;2023-09-30T11:54:14;22.60;45.80
82126;DHT22;71668;51.400;6.758;2023-09-30T11:56:41;22.70;46.00
82126;DHT22;71668;51.400;6.758;2023-09-30T11:59:09;22.80;46.10
82126;DHT22;71668;51.400;6.758;2023-09-30T12:01:39;22.90;45.70
82126;DHT22;71668;51.400;6.758;2023-09-30T12:04:17;23.00;44.50
82126;DHT22;71668;51.400;6.758;2023-09-30T12:06:46;23.00;43.90
82126;DHT22;71668;51.400;6.758;2023-09-30T12:09:16;23.00;44.10
82126;DHT22;71668;51.400;6.758;2023-09-30T12:11:49;23.00;44.40
82126;DHT22;71668;51.400;6.758;2023-09-30T12:14:16;22.90;44.50
82126;DHT22;71668;51.400;6.758;2023-09-30T12:16:43;22.80;44.90
82126;DHT22;71668;51.400;6.758;2023-09-30T12:19:14;22.80;45.10
82126;DHT22;71668;51.400;6.758;2023-09-30T12:21:42;22.80;45.20
82126;DHT22;71668;51.400;6.758;2023-09-30T12:24:10;22.80;45.40
82126;DHT22;71668;51.400;6.758;2023-09-30T12:26:37;22.70;45.40
82126;DHT22;71668;51.400;6.758;2023-09-30T12:29:05;22.70;45.20
82126;DHT22;71668;51.400;6.758;2023-09-30T12:31:32;22.80;44.90
82126;DHT22;71668;51.400;6.758;2023-09-30T12:34:15;22.80;44.50
82126;DHT22;71668;51.400;6.758;2023-09-30T12:36:43;22.90;44.20
82126;DHT22;71668;51.400;6.758;2023-09-30T12:39:11;23.00;44.30
82126;DHT22;71668;51.400;6.758;2023-09-30T12:41:42;23.00;43.80
82126;DHT22;71668;51.400;6.758;2023-09-30T12:44:13;23.00;43.20
82126;DHT22;71668;51.400;6.758;2023-09-30T12:46:40;23.00;43.10
82126;DHT22;71668;51.400;6.758;2023-09-30T12:49:07;22.90;43.10
82126;DHT22;71668;51.400;6.758;2023-09-30T12:51:35;22.80;43.10
82126;DHT22;71668;51.400;6.758;2023-09-30T12:54:03;22.80;43.60
82126;DHT22;71668;51.400;6.758;2023-09-30T12:56:30;22.70;43.60
82126;DHT22;71668;51.400;6.758;2023-09-30T12:58:58;22.70;43.90
82126;DHT22;71668;51.400;6.758;2023-09-30T13:01:26;22.80;44.20
82126;DHT22;71668;51.400;6.758;2023-09-30T13:03:55;22.90;44.10
82126;DHT22;71668;51.400;6.758;2023-09-30T13:06:23;22.90;43.70
82126;DHT22;71668;51.400;6.758;2023-09-30T13:08:50;23.00;43.30
82126;DHT22;71668;51.400;6.758;2023-09-30T13:11:17;22.90;43.50
82126;DHT22;71668;51.400;6.758;2023-09-30T13:13:44;22.80;43.80
82126;DHT22;71668;51.400;6.758;2023-09-30T13:16:12;22.70;44.20
82126;DHT22;71668;51.400;6.758;2023-09-30T13:18:39;22.60;44.40
82126;DHT22;71668;51.400;6.758;2023-09-30T13:21:06;22.50;44.30
82126;DHT22;71668;51.400;6.758;2023-09-30T13:23:34;22.40;44.20
82126;DHT22;71668;51.400;6.758;2023-09-30T13:26:01;22.30;44.20
82126;DHT22;71668;51.400;6.758;2023-09-30T13:28:28;22.30;44.40
82126;DHT22;71668;51.400;6.758;2023-09-30T13:30:56;22.20;44.70
82126;DHT22;71668;51.400;6.758;2023-09-30T13:33:23;22.00;44.80
82126;DHT22;71668;51.400;6.758;2023-09-30T13:35:51;21.90;45.10
82126;DHT22;71668;51.400;6.758;2023-09-30T13:38:18;21.80;45.50
82126;DHT22;71668;51.400;6.758;2023-09-30T13:40:44;21.80;45.90
82126;DHT22;71668;51.400;6.758;2023-09-30T13:43:13;21.90;46.00
82126;DHT22;71668;51.400;6.758;2023-09-30T13:45:40;21.90;46.00
82126;DHT22;71668;51.400;6.758;2023-09-30T13:48:07;21.90;46.10
82126;DHT22;71668;51.400;6.758;2023-09-30T13:50:38;21.90;46.00
82126;DHT22;71668;51.400;6.758;2023-09-30T13:53:05;21.90;45.80
82126;DHT22;71668;51.400;6.758;2023-09-30T13:55:32;21.90;45.60
82126;DHT22;71668;51.400;6.758;2023-09-30T13:57:59;21.80;45.60
82126;DHT22;71668;51.400;6.758;2023-09-30T14:00:28;21.70;45.60
82126;DHT22;71668;51.400;6.758;2023-09-30T14:02:54;21.60;45.70
82126;DHT22;71668;51.400;6.758;2023-09-30T14:05:22;21.50;45.90
82126;DHT22;71668;51.400;6.758;2023-09-30T14:07:50;21.50;46.10
82126;DHT22;71668;51.400;6.758;2023-09-30T14:10:17;21.40;46.20
82126;DHT22;71668;51.400;6.758;2023-09-30T14:12:45;21.40;46.30
82126;DHT22;71668;51.400;6.758;2023-09-30T14:15:13;21.40;46.40
82126;DHT22;71668;51.400;6.758;2023-09-30T14:17:42;21.40;46.60
82126;DHT22;71668;51.400;6.758;2023-09-30T14:20:09;21.40;46.80
82126;DHT22;71668;51.400;6.758;2023-09-30T14:22:39;21.30;47.00
82126;DHT22;71668;51.400;6.758;2023-09-30T14:25:06;21.40;47.10
82126;DHT22;71668;51.400;6.758;2023-09-30T14:27:34;21.40;46.80
82126;DHT22;71668;51.400;6.758;2023-09-30T14:30:02;21.40;46.40
82126;DHT22;71668;51.400;6.758;2023-09-30T14:32:34;21.40;46.50
82126;DHT22;71668;51.400;6.758;2023-09-30T14:35:02;21.40;46.40
82126;DHT22;71668;51.400;6.758;2023-09-30T14:37:32;21.40;46.30
82126;DHT22;71668;51.400;6.758;2023-09-30T14:40:00;21.40;46.30
82126;DHT22;71668;51.400;6.758;2023-09-30T14:42:26;21.40;46.60
82126;DHT22;71668;51.400;6.758;2023-09-30T14:44:56;21.40;46.70
82126;DHT22;71668;51.400;6.758;2023-09-30T14:47:23;21.40;46.80
82126;DHT22;71668;51.400;6.758;2023-09-30T14:49:50;21.40;46.80
82126;DHT22;71668;51.400;6.758;2023-09-30T14:52:17;21.50;46.30
82126;DHT22;71668;51.400;6.758;2023-09-30T14:54:44;21.50;45.70
82126;DHT22;71668;51.400;6.758;2023-09-30T14:57:11;21.40;45.70
82126;DHT22;71668;51.400;6.758;2023-09-30T14:59:40;21.30;45.90
82126;DHT22;71668;51.400;6.758;2023-09-30T15:02:07;21.20;46.20
82126;DHT22;71668;51.400;6.758;2023-09-30T15:04:38;21.20;46.40
82126;DHT22;71668;51.400;6.758;2023-09-30T15:07:05;21.20;46.30
82126;DHT22;71668;51.400;6.758;2023-09-30T15:09:32;21.20;46.30
82126;DHT22;71668;51.400;6.758;2023-09-30T15:11:59;21.20;46.20
82126;DHT22;71668;51.400;6.758;2023-09-30T15:14:26;21.20;46.10
82126;DHT22;71668;51.400;6.758;2023-09-30T15:16:53;21.20;46.20
82126;DHT22;71668;51.400;6.758;2023-09-30T15:19:20;21.10;46.40
82126;DHT22;71668;51.400;6.758;2023-09-30T15:21:47;21.10;46.40
82126;DHT22;71668;51.400;6.758;2023-09-30T15:24:14;21.00;46.50
82126;DHT22;71668;51.400;6.758;2023-09-30T15:26:42;20.90;46.90
82126;DHT22;71668;51.400;6.758;2023-09-30T15:29:11;20.90;47.00
82126;DHT22;71668;51.400;6.758;2023-09-30T15:31:38;20.80;47.00
82126;DHT22;71668;51.400;6.758;2023-09-30T15:34:05;20.70;46.90
82126;DHT22;71668;51.400;6.758;2023-09-30T15:36:32;20.60;46.90
82126;DHT22;71668;51.400;6.758;2023-09-30T15:38:59;20.60;46.70
82126;DHT22;71668;51.400;6.758;2023-09-30T15:41:28;20.50;47.00
82126;DHT22;71668;51.400;6.758;2023-09-30T15:43:58;20.40;47.20
82126;DHT22;71668;51.400;6.758;2023-09-30T15:46:26;20.40;47.20
82126;DHT22;71668;51.400;6.758;2023-09-30T15:48:53;20.30;47.40
82126;DHT22;71668;51.400;6.758;2023-09-30T15:51:21;20.30;47.80
82126;DHT22;71668;51.400;6.758;2023-09-30T15:53:48;20.20;48.00
82126;DHT22;71668;51.400;6.758;2023-09-30T15:56:15;20.10;47.90
82126;DHT22;71668;51.400;6.758;2023-09-30T15:58:42;20.20;47.90